Huntsville, Canada
Current Conditions -  °F | °C
As of 11:00 AM on Friday 24 Oct 2014 (Local Time) from CYQA Reporting Station
Clear Clear  
Wind Chill: 43°   Ceiling: Unl
Heat Index: 48°   Visibility: 9mi
Dew Point: 41°   Wind: 12mph
Humidity: 76%   Direction: 260°W
Pressure: 30.01"   Gusts: NA
Location:  45.33°N, 79.22°W
Report Text: CYQA 241500Z AUTO 26010KT 240V310 9SM CLR 09/05 A3001 RMK SLP169
Loading
Personal Weather Stations






























Interactive Weather Map
Tropical Storm Tracking
New forecast layout! Learn more

10-Day Weather Forecast

Advertisements
Track Severe Weather on mobile